Time;durP1;ratioP1;P1;durP2;ratioP2;P2;SDS_P1;SDS_P2;PMS_P1;PMS_P2;Temp;Humidity;BMP_temperature;BMP_pressure;BME280_temperature;BME280_humidity;BME280_pressure;Samples;Min_cycle;Max_cycle;Signal;HPM_P1;HPM_P2
2023/03/26 07:23:18;;;;;;;6.07;3.85;;;;;;;;;;4902790;27;20605;-83
2023/03/26 07:25:47;;;;;;;5.28;1.98;;;;;;;;;;4931919;28;236144;-83
2023/03/26 07:28:24;;;;;;;4.85;1.85;;;;;;;;;;5025919;28;20037;-83
2023/03/26 07:31:12;;;;;;;3.13;2.03;;;;;;;;;;5020602;28;20096;-82
2023/03/26 07:33:57;;;;;;;2.50;1.50;;;;;;;;;;5026400;28;20073;-83
2023/03/26 07:36:47;;;;;;;5.38;2.55;;;;;;;;;;5022404;28;20029;-82
2023/03/26 07:39:44;;;;;;;3.67;1.73;;;;;;;;;;5023150;28;20038;-83
2023/03/26 07:42:10;;;;;;;7.55;2.53;;;;;;;;;;5019474;28;20029;-83
2023/03/26 07:44:39;;;;;;;3.60;2.10;;;;;;;;;;5042513;28;20133;-83
2023/03/26 07:47:25;;;;;;;8.43;3.88;;;;;;;;;;5027721;28;20065;-82
2023/03/26 07:49:53;;;;;;;6.13;3.10;;;;;;;;;;5028038;28;20026;-83
2023/03/26 07:52:19;;;;;;;8.75;2.88;;;;;;;;;;5026554;28;20482;-83
2023/03/26 07:54:45;;;;;;;6.15;2.85;;;;;;;;;;5027060;28;20041;-83
2023/03/26 07:57:17;;;;;;;4.93;2.30;;;;;;;;;;5027532;28;20038;-84
2023/03/26 07:59:57;;;;;;;4.28;1.90;;;;;;;;;;5043415;28;20046;-83
2023/03/26 08:02:29;;;;;;;4.03;1.88;;;;;;;;;;5027639;28;20064;-83
2023/03/26 08:05:17;;;;;;;8.48;2.30;;;;;;;;;;5017923;28;20045;-83
2023/03/26 08:08:01;;;;;;;4.13;1.63;;;;;;;;;;5024296;28;20076;-83
2023/03/26 08:10:38;;;;;;;8.00;2.83;;;;;;;;;;5026995;28;20107;-82
2023/03/26 08:13:13;;;;;;;5.68;1.70;;;;;;;;;;5042398;28;20026;-83
2023/03/26 08:15:48;;;;;;;7.43;2.58;;;;;;;;;;5027590;28;20041;-83
2023/03/26 08:18:37;;;;;;;4.82;1.85;;;;;;;;;;5027169;28;20033;-83
2023/03/26 08:21:15;;;;;;;6.07;1.98;;;;;;;;;;5035690;28;20378;-83
2023/03/26 08:24:03;;;;;;;4.90;1.90;;;;;;;;;;5013560;28;20034;-83
2023/03/26 08:26:35;;;;;;;4.45;2.00;;;;;;;;;;5016114;28;20388;-83
2023/03/26 08:29:26;;;;;;;7.20;2.20;;;;;;;;;;5032472;28;20555;-83
2023/03/26 08:31:53;;;;;;;6.50;1.75;;;;;;;;;;5040999;28;20049;-83
2023/03/26 08:34:19;;;;;;;6.15;1.95;;;;;;;;;;5007525;28;20088;-83
2023/03/26 08:36:45;;;;;;;7.13;2.08;;;;;;;;;;5005358;28;20042;-82
2023/03/26 08:39:11;;;;;;;3.13;1.85;;;;;;;;;;5012071;28;20080;-84
2023/03/26 08:42:00;;;;;;;5.88;2.03;;;;;;;;;;5001563;28;20561;-84
2023/03/26 08:44:46;;;;;;;5.00;1.77;;;;;;;;;;4999884;28;20061;-83
2023/03/26 08:47:38;;;;;;;7.35;2.10;;;;;;;;;;5028485;28;20046;-83
2023/03/26 08:50:23;;;;;;;4.13;1.77;;;;;;;;;;5011938;28;20094;-84
2023/03/26 08:53:14;;;;;;;5.85;1.98;;;;;;;;;;5014135;28;20103;-83
2023/03/26 08:55:42;;;;;;;4.65;1.92;;;;;;;;;;4997043;28;20097;-83
2023/03/26 08:58:40;;;;;;;3.38;1.70;;;;;;;;;;5013538;28;20092;-83
2023/03/26 09:01:24;;;;;;;7.88;2.35;;;;;;;;;;5013516;28;20038;-83
2023/03/26 09:04:09;;;;;;;4.55;1.90;;;;;;;;;;5003687;28;20092;-83
2023/03/26 09:07:35;;;;;;;4.65;2.30;;;;;;;;;;5006583;28;20044;-83
2023/03/26 09:10:41;;;;;;;5.22;2.40;;;;;;;;;;5012780;28;20037;-83
2023/03/26 09:13:27;;;;;;;5.40;1.95;;;;;;;;;;5012971;28;20109;-83
2023/03/26 09:16:11;;;;;;;3.90;2.70;;;;;;;;;;5011635;28;20038;-82
2023/03/26 09:19:20;;;;;;;6.38;2.40;;;;;;;;;;5007704;28;20080;-83
2023/03/26 09:22:08;;;;;;;5.07;2.03;;;;;;;;;;5018276;28;20088;-84
2023/03/26 09:24:40;;;;;;;6.38;2.45;;;;;;;;;;5005215;28;20445;-83
2023/03/26 09:27:24;;;;;;;6.60;2.95;;;;;;;;;;5006038;28;20401;-83
2023/03/26 09:30:19;;;;;;;6.35;2.42;;;;;;;;;;5012728;28;20603;-82
2023/03/26 09:32:56;;;;;;;5.82;2.65;;;;;;;;;;5012724;28;20029;-82
2023/03/26 09:35:25;;;;;;;4.03;1.98;;;;;;;;;;5012011;28;20042;-83
2023/03/26 09:38:28;;;;;;;4.15;2.05;;;;;;;;;;5012249;28;20038;-81
2023/03/26 09:41:00;;;;;;;5.85;2.45;;;;;;;;;;5027795;28;20029;-83
2023/03/26 09:43:42;;;;;;;6.03;2.50;;;;;;;;;;5012841;28;20409;-83
2023/03/26 09:46:31;;;;;;;;;;;;;;;;;;4992355;28;20042;-83
2023/03/26 09:49:28;;;;;;;5.70;2.30;;;;;;;;;;5005221;28;19909;-83
2023/03/26 09:52:20;;;;;;;4.82;2.17;;;;;;;;;;4992397;28;20058;-82
2023/03/26 09:54:57;;;;;;;4.65;2.30;;;;;;;;;;4992790;28;20065;-83
2023/03/26 09:57:34;;;;;;;4.50;2.20;;;;;;;;;;4992655;28;20069;-83
2023/03/26 10:00:22;;;;;;;6.63;3.03;;;;;;;;;;5005851;28;20097;-83
2023/03/26 10:03:14;;;;;;;6.28;2.83;;;;;;;;;;5009374;28;20068;-83
2023/03/26 10:05:57;;;;;;;5.05;2.20;;;;;;;;;;5008553;28;20088;-83
2023/03/26 10:08:54;;;;;;;4.70;2.60;;;;;;;;;;5007136;28;20162;-83
2023/03/26 10:11:36;;;;;;;7.45;3.25;;;;;;;;;;4993507;28;20033;-84
2023/03/26 10:14:16;;;;;;;6.65;2.97;;;;;;;;;;5007005;28;20038;-84
2023/03/26 10:16:57;;;;;;;7.78;2.92;;;;;;;;;;5028664;28;20449;-83
2023/03/26 10:19:39;;;;;;;7.50;3.15;;;;;;;;;;5027749;28;20060;-83
2023/03/26 10:22:26;;;;;;;6.22;2.80;;;;;;;;;;4997623;28;20042;-83
2023/03/26 10:25:18;;;;;;;6.20;2.50;;;;;;;;;;5028012;28;20050;-85
2023/03/26 10:28:07;;;;;;;7.25;2.67;;;;;;;;;;4999175;28;20034;-85
2023/03/26 10:30:54;;;;;;;5.47;2.30;;;;;;;;;;5001575;28;20038;-85
2023/03/26 10:33:32;;;;;;;5.05;2.05;;;;;;;;;;5008257;28;20466;-86
2023/03/26 10:36:10;;;;;;;5.78;2.42;;;;;;;;;;5006348;28;20040;-86
2023/03/26 10:39:08;;;;;;;8.15;2.97;;;;;;;;;;5012214;28;20042;-84
2023/03/26 10:41:52;;;;;;;7.68;2.42;;;;;;;;;;5026825;28;20046;-86
2023/03/26 10:44:42;;;;;;;6.68;2.30;;;;;;;;;;5011202;28;20038;-85
2023/03/26 10:47:26;;;;;;;5.90;2.40;;;;;;;;;;5020946;28;20135;-85
2023/03/26 10:50:01;;;;;;;3.63;2.10;;;;;;;;;;5003912;28;20037;-86
2023/03/26 10:52:36;;;;;;;3.15;1.92;;;;;;;;;;5011811;28;20026;-86
2023/03/26 10:55:25;;;;;;;4.88;2.60;;;;;;;;;;5003186;28;20428;-85
2023/03/26 10:57:55;;;;;;;5.95;2.10;;;;;;;;;;5002152;28;20030;-84
2023/03/26 11:00:26;;;;;;;4.82;2.60;;;;;;;;;;5004777;28;20437;-85
2023/03/26 11:02:57;;;;;;;;;;;;;;;;;;5005543;28;20038;-86
2023/03/26 11:05:45;;;;;;;2.58;2.00;;;;;;;;;;5013873;28;19913;-85
2023/03/26 11:08:27;;;;;;;7.20;3.78;;;;;;;;;;5005218;28;20030;-85
2023/03/26 11:11:09;;;;;;;5.68;3.05;;;;;;;;;;5026545;28;20034;-85
2023/03/26 11:14:01;;;;;;;3.67;2.40;;;;;;;;;;5001589;28;20042;-86
2023/03/26 11:16:49;;;;;;;;;;;;;;;;;;5024554;28;20041;-85
2023/03/26 11:19:30;;;;;;;5.05;2.42;;;;;;;;;;4999736;28;19914;-85
2023/03/26 11:22:07;;;;;;;5.25;2.28;;;;;;;;;;5009994;28;20037;-82
2023/03/26 11:25:03;;;;;;;7.95;2.45;;;;;;;;;;5010056;28;20050;-85
2023/03/26 11:27:55;;;;;;;4.13;1.80;;;;;;;;;;5001139;28;20054;-86
2023/03/26 11:30:53;;;;;;;3.15;1.98;;;;;;;;;;5009399;28;20048;-85
2023/03/26 11:33:35;;;;;;;5.32;2.72;;;;;;;;;;5011229;28;20470;-84
2023/03/26 11:36:07;;;;;;;5.95;2.35;;;;;;;;;;4997621;28;20627;-86
2023/03/26 11:38:36;;;;;;;4.82;1.88;;;;;;;;;;5019240;28;20034;-87
2023/03/26 11:43:35;;;;;;;6.60;1.80;;;;;;;;;;5075125;27;20400;-85
2023/03/26 12:04:39;;;;;;;4.13;1.30;;;;;;;;;;4799165;27;2017851;-85
2023/03/26 12:07:20;;;;;;;2.47;1.42;;;;;;;;;;5077303;28;21000;-86
2023/03/26 12:09:55;;;;;;;1.88;1.52;;;;;;;;;;5087911;28;20551;-84
2023/03/26 12:12:36;;;;;;;5.07;1.98;;;;;;;;;;5108377;28;20559;-86
2023/03/26 12:15:03;;;;;;;;;;;;;;;;;;5073562;28;20101;-85
2023/03/26 12:17:36;;;;;;;3.15;1.67;;;;;;;;;;5092202;28;19904;-86
2023/03/26 12:20:25;;;;;;;3.80;1.73;;;;;;;;;;5104073;28;20061;-85
2023/03/26 12:23:01;;;;;;;5.45;1.95;;;;;;;;;;5106378;28;20072;-86
2023/03/26 12:25:33;;;;;;;4.75;1.90;;;;;;;;;;5107704;28;20044;-86
2023/03/26 12:28:12;;;;;;;6.00;2.05;;;;;;;;;;5104293;28;20035;-86
2023/03/26 12:30:41;;;;;;;4.43;2.10;;;;;;;;;;5107251;28;20089;-84
2023/03/26 12:33:20;;;;;;;3.08;1.75;;;;;;;;;;5103132;28;20430;-85
2023/03/26 12:35:48;;;;;;;5.63;2.30;;;;;;;;;;5107354;28;20036;-86
2023/03/26 12:38:34;;;;;;;2.28;1.90;;;;;;;;;;5107043;28;20035;-87
2023/03/26 12:41:13;;;;;;;2.75;1.90;;;;;;;;;;5106553;28;20684;-85
2023/03/26 12:43:45;;;;;;;4.43;2.00;;;;;;;;;;5123120;28;20491;-85
2023/03/26 12:46:32;;;;;;;4.10;1.98;;;;;;;;;;5088126;28;20039;-86
2023/03/26 12:49:05;;;;;;;4.45;2.10;;;;;;;;;;5091450;28;20032;-84
2023/03/26 12:51:47;;;;;;;5.55;2.05;;;;;;;;;;5081740;28;20093;-85
2023/03/26 12:54:32;;;;;;;2.45;1.70;;;;;;;;;;5090663;28;20051;-86
2023/03/26 12:57:25;;;;;;;2.63;1.83;;;;;;;;;;5101876;28;20399;-85
2023/03/26 13:00:20;;;;;;;3.35;1.90;;;;;;;;;;5107290;28;20062;-86
2023/03/26 13:02:57;;;;;;;1.83;1.67;;;;;;;;;;5105764;28;20039;-87
2023/03/26 13:05:42;;;;;;;3.25;1.90;;;;;;;;;;5097305;28;20059;-85
2023/03/26 13:08:39;;;;;;;3.20;1.80;;;;;;;;;;5104940;28;20044;-86
2023/03/26 13:11:30;;;;;;;3.40;1.70;;;;;;;;;;5099415;28;20484;-86
2023/03/26 13:14:08;;;;;;;2.63;1.60;;;;;;;;;;5087338;28;20612;-86
2023/03/26 13:16:53;;;;;;;2.22;1.33;;;;;;;;;;5096933;28;20114;-86
2023/03/26 13:19:45;;;;;;;3.97;1.60;;;;;;;;;;5091051;28;20123;-85
2023/03/26 13:22:46;;;;;;;3.28;1.80;;;;;;;;;;5077860;28;20040;-86
2023/03/26 13:25:34;;;;;;;5.70;1.60;;;;;;;;;;5084502;28;20041;-86
2023/03/26 13:28:24;;;;;;;2.95;1.60;;;;;;;;;;5091795;28;20070;-86
2023/03/26 13:31:08;;;;;;;5.17;1.50;;;;;;;;;;5094003;28;20565;-84
2023/03/26 13:33:59;;;;;;;2.20;1.60;;;;;;;;;;5083361;28;20048;-85
2023/03/26 13:36:50;;;;;;;3.03;1.40;;;;;;;;;;5085572;28;20040;-84
2023/03/26 13:39:28;;;;;;;4.45;1.50;;;;;;;;;;5078275;28;20105;-85
2023/03/26 13:42:12;;;;;;;2.08;1.27;;;;;;;;;;5088659;28;20347;-84
2023/03/26 13:45:03;;;;;;;3.35;1.30;;;;;;;;;;5091865;28;20032;-86
2023/03/26 13:47:41;;;;;;;2.50;1.48;;;;;;;;;;5091766;28;20044;-85
2023/03/26 13:50:23;;;;;;;2.40;1.25;;;;;;;;;;5087208;28;20028;-84
2023/03/26 13:52:58;;;;;;;2.30;1.27;;;;;;;;;;5079068;28;20070;-86
2023/03/26 13:55:29;;;;;;;4.13;1.20;;;;;;;;;;5073190;28;20055;-85
2023/03/26 13:58:10;;;;;;;2.95;1.48;;;;;;;;;;5093194;28;20024;-86
2023/03/26 14:01:22;;;;;;;3.13;1.33;;;;;;;;;;5091875;28;20028;-85
2023/03/26 14:03:51;;;;;;;2.50;1.40;;;;;;;;;;5044262;28;20107;-87
2023/03/26 14:07:08;;;;;;;2.97;1.80;;;;;;;;;;5093124;28;20047;-87
2023/03/26 14:09:43;;;;;;;3.35;1.85;;;;;;;;;;5042652;28;20036;-86
2023/03/26 14:12:38;;;;;;;2.47;1.25;;;;;;;;;;5087767;28;20032;-86
2023/03/26 14:15:05;;;;;;;2.95;1.45;;;;;;;;;;5037385;28;20091;-88
2023/03/26 14:17:40;;;;;;;1.85;1.20;;;;;;;;;;5093389;28;20514;-87
2023/03/26 14:20:22;;;;;;;2.05;1.17;;;;;;;;;;5091063;28;20577;-87
2023/03/26 14:22:57;;;;;;;1.83;1.10;;;;;;;;;;5093256;28;20066;-87
2023/03/26 14:25:40;;;;;;;1.58;1.00;;;;;;;;;;5023162;28;20044;-86
2023/03/26 14:28:17;;;;;;;1.25;0.90;;;;;;;;;;5086033;28;20044;-88
2023/03/26 14:31:02;;;;;;;2.00;0.82;;;;;;;;;;5087241;28;20043;-86
2023/03/26 14:33:40;;;;;;;1.65;0.90;;;;;;;;;;5085051;28;20028;-85
2023/03/26 14:37:59;;;;;;;1.83;1.05;;;;;;;16.05;61.33;95893.00;4985752;27;20452;-86
2023/03/26 14:40:56;;;;;;;1.58;1.10;;;;;;;16.23;62.08;95888.75;4974208;28;20034;-85
2023/03/26 14:43:34;;;;;;;1.60;0.80;;;;;;;16.02;60.80;95841.50;4932660;28;20508;-84
2023/03/26 14:46:41;;;;;;;2.47;1.20;;;;;;;15.75;59.78;95793.81;4976817;28;20061;-85
2023/03/26 14:49:31;;;;;;;2.10;1.10;;;;;;;16.02;62.91;95909.44;4985259;28;20030;-86
2023/03/26 14:52:17;;;;;;;1.95;1.25;;;;;;;15.87;61.01;95833.00;4993456;28;20038;-85
2023/03/26 14:54:50;;;;;;;2.47;1.23;;;;;;;15.13;65.39;95952.28;4968262;28;20921;-85
2023/03/26 14:57:49;;;;;;;2.33;1.10;;;;;;;14.86;65.27;95959.94;4958277;28;20058;-85
2023/03/26 15:01:13;;;;;;;3.75;1.20;;;;;;;15.25;66.93;95965.88;4981383;28;20069;-84
2023/03/26 15:03:53;;;;;;;1.88;1.17;;;;;;;16.11;61.31;95770.22;4942409;28;20497;-85
2023/03/26 15:07:19;;;;;;;2.67;1.10;;;;;;;15.58;60.93;95752.03;4974342;28;20034;-86
2023/03/26 15:10:14;;;;;;;1.88;1.10;;;;;;;16.32;61.72;95792.59;4956555;28;20034;-85
2023/03/26 15:13:06;;;;;;;2.35;1.10;;;;;;;18.07;58.64;95679.16;4957411;28;21153;-84
2023/03/26 15:15:57;;;;;;;3.28;1.10;;;;;;;17.22;54.70;95604.94;4964550;28;20503;-86
2023/03/26 15:18:41;;;;;;;2.00;1.05;;;;;;;16.17;58.07;95673.84;4968238;28;20046;-86
2023/03/26 15:21:40;;;;;;;1.23;1.00;;;;;;;14.70;60.68;95791.22;4971556;28;20145;-87
2023/03/26 15:24:29;;;;;;;2.67;1.15;;;;;;;14.41;67.30;95978.47;4961538;28;20034;-86
2023/03/26 15:27:32;;;;;;;1.73;1.05;;;;;;;14.38;68.27;96015.16;4968096;28;20108;-85
2023/03/26 15:30:41;;;;;;;1.50;0.80;;;;;;;13.91;64.42;95879.44;4959876;28;20041;-86
2023/03/26 15:33:56;;;;;;;1.65;0.95;;;;;;;13.62;67.18;95966.31;4958639;28;20102;-85
2023/03/26 15:37:04;;;;;;;2.00;0.90;;;;;;;15.40;68.71;96038.09;4961667;28;20053;-85
2023/03/26 15:40:06;;;;;;;1.90;0.88;;;;;;;17.08;55.66;95659.81;4955389;28;20042;-85
2023/03/26 15:42:56;;;;;;;0.90;0.80;;;;;;;17.47;51.72;95632.66;4907085;28;20035;-88
2023/03/26 15:45:41;;;;;;;2.38;0.90;;;;;;;17.74;50.31;95623.78;4942991;28;20042;-86
2023/03/26 15:48:12;;;;;;;0.80;0.70;;;;;;;-143.04;100.00;61139.28;4937956;28;20134;-86
2023/03/26 15:51:21;;;;;;;1.77;0.80;;;;;;;-143.04;100.00;61139.28;4943582;28;20050;-85
2023/03/26 15:54:16;;;;;;;2.33;1.63;;;;;;;-143.04;100.00;61139.28;4932647;28;20035;-85
2023/03/26 15:57:02;;;;;;;2.20;0.80;;;;;;;-143.04;100.00;61139.28;4936755;28;623216;-86
2023/03/26 15:59:49;;;;;;;3.45;0.90;;;;;;;;;;5109517;27;20442;-86
2023/03/26 16:02:25;;;;;;;1.17;0.80;;;;;;;;;;5089008;28;20107;-84
2023/03/26 16:04:54;;;;;;;1.00;0.80;;;;;;;;;;5086129;28;20086;-84
2023/03/26 16:07:50;;;;;;;1.55;0.60;;;;;;;;;;5096557;28;20031;-86
2023/03/26 16:10:27;;;;;;;0.80;0.60;;;;;;;;;;5085070;28;20567;-85
2023/03/26 16:12:52;;;;;;;1.58;0.68;;;;;;;;;;5071599;28;20048;-85
2023/03/26 16:15:29;;;;;;;2.25;0.80;;;;;;;;;;5073737;28;20032;-84
2023/03/26 16:18:03;;;;;;;1.48;0.82;;;;;;;;;;5074716;28;20039;-85
2023/03/26 16:20:33;;;;;;;1.88;0.75;;;;;;;;;;5071141;28;20055;-87
2023/03/26 16:23:03;;;;;;;0.65;0.60;;;;;;;;;;5085021;28;20113;-85
2023/03/26 16:25:29;;;;;;;1.33;0.50;;;;;;;;;;5083608;28;20063;-83
2023/03/26 16:28:10;;;;;;;1.73;0.73;;;;;;;;;;5075075;28;20117;-86
2023/03/26 16:30:36;;;;;;;1.13;0.70;;;;;;;;;;5082972;28;20029;-84
2023/03/26 16:33:11;;;;;;;1.90;0.65;;;;;;;;;;5070186;28;20039;-86
2023/03/26 16:35:36;;;;;;;2.17;0.90;;;;;;;;;;5064739;28;20042;-84
2023/03/26 16:38:10;;;;;;;1.58;0.50;;;;;;;;;;5089547;28;20037;-84
2023/03/26 16:40:47;;;;;;;2.67;0.70;;;;;;;;;;5075390;28;20048;-84
2023/03/26 16:43:19;;;;;;;1.17;0.63;;;;;;;;;;5088005;28;20040;-84
2023/03/26 16:45:52;;;;;;;1.35;0.70;;;;;;;;;;5085075;28;20032;-85
2023/03/26 16:48:28;;;;;;;1.85;0.60;;;;;;;;;;5084026;28;20488;-84
2023/03/26 16:50:53;;;;;;;2.70;0.60;;;;;;;;;;5109897;28;20046;-84
2023/03/26 16:53:40;;;;;;;2.70;0.70;;;;;;;;;;5087265;28;20472;-84
2023/03/26 16:56:14;;;;;;;1.75;0.80;;;;;;;;;;5081134;28;20083;-84
2023/03/26 16:58:42;;;;;;;1.55;0.70;;;;;;;;;;5020415;28;269559;-85
2023/03/26 17:01:18;;;;;;;1.55;0.70;;;;;;;;;;4972410;28;20046;-87
2023/03/26 17:03:49;;;;;;;3.22;0.80;;;;;;;;;;5004084;28;20034;-84
2023/03/26 17:06:31;;;;;;;3.42;0.88;;;;;;;;;;5005588;28;20038;-83
2023/03/26 17:09:00;;;;;;;2.67;1.23;;;;;;;;;;5006661;28;20093;-87
2023/03/26 17:11:28;;;;;;;2.30;0.88;;;;;;;;;;4994457;28;20277;-87
2023/03/26 17:13:53;;;;;;;3.17;1.08;;;;;;;;;;4995210;28;20042;-86
2023/03/26 17:16:43;;;;;;;1.30;1.00;;;;;;;;;;4993704;28;20084;-85
2023/03/26 17:19:16;;;;;;;1.75;0.82;;;;;;;;;;4967632;28;20046;-84
2023/03/26 17:21:48;;;;;;;3.25;0.80;;;;;;;;;;5013432;28;20060;-83
2023/03/26 17:24:16;;;;;;;2.45;1.05;;;;;;;;;;5014344;28;20093;-83
2023/03/26 17:26:50;;;;;;;4.30;0.88;;;;;;;;;;5014103;28;20859;-83
2023/03/26 17:29:51;;;;;;;1.65;0.90;;;;;;;;;;5013130;28;20022;-87
2023/03/26 17:32:20;;;;;;;2.42;0.95;;;;;;;;;;4961429;28;20061;-86
2023/03/26 17:34:54;;;;;;;2.90;1.00;;;;;;;;;;5001970;28;20041;-89
2023/03/26 17:37:20;;;;;;;4.43;1.10;;;;;;;;;;5015479;28;20026;-88
2023/03/26 17:39:45;;;;;;;1.92;1.30;;;;;;;;;;5005644;28;20062;-88
2023/03/26 17:42:11;;;;;;;1.33;0.90;;;;;;;;;;5014833;28;20034;-88
2023/03/26 17:44:36;;;;;;;3.15;1.38;;;;;;;;;;5013207;28;20034;-84
2023/03/26 17:47:03;;;;;;;2.95;1.40;;;;;;;;;;5028973;28;20481;-84
2023/03/26 17:49:32;;;;;;;2.40;1.30;;;;;;;;;;5028966;28;20381;-85
2023/03/26 17:51:57;;;;;;;5.25;1.35;;;;;;;;;;4995426;28;20041;-86
2023/03/26 17:54:43;;;;;;;1.90;1.20;;;;;;;;;;5029268;28;20034;-85
2023/03/26 17:57:13;;;;;;;1.35;0.77;;;;;;;;;;5013677;28;20493;-87
2023/03/26 17:59:39;;;;;;;1.30;0.60;;;;;;;;;;5012195;28;20083;-87
2023/03/26 18:02:11;;;;;;;1.02;0.80;;;;;;;;;;5028903;28;20034;-86
2023/03/26 18:04:37;;;;;;;1.00;0.70;;;;;;;;;;5011013;28;20060;-86
2023/03/26 18:07:15;;;;;;;2.42;0.73;;;;;;;;;;5012859;28;20038;-87
2023/03/26 18:09:44;;;;;;;2.90;0.98;;;;;;;;;;5011704;28;20033;-87
2023/03/26 18:12:15;;;;;;;1.15;0.60;;;;;;;;;;5014298;28;20470;-85
2023/03/26 18:15:01;;;;;;;1.65;0.80;;;;;;;;;;5012455;28;20595;-87
2023/03/26 18:17:30;;;;;;;0.82;0.70;;;;;;;;;;5012545;28;20029;-87
2023/03/26 18:20:04;;;;;;;1.48;0.90;;;;;;;;;;5013929;28;20041;-86
2023/03/26 18:22:30;;;;;;;0.77;0.50;;;;;;;;;;5011341;28;20029;-87
2023/03/26 18:24:58;;;;;;;2.08;0.70;;;;;;;;;;5012417;28;20508;-88
2023/03/26 18:27:25;;;;;;;1.38;0.70;;;;;;;;;;5013489;28;20394;-86
2023/03/26 18:29:57;;;;;;;0.82;0.60;;;;;;;;;;5008446;28;20042;-86
2023/03/26 18:32:24;;;;;;;0.60;0.60;;;;;;;;;;5013449;28;20100;-85
2023/03/26 18:34:55;;;;;;;0.60;0.60;;;;;;;;;;5013378;28;20070;-87
2023/03/26 18:37:21;;;;;;;;;;;;;;;;;;5013839;28;20030;-87
2023/03/26 18:39:56;;;;;;;2.28;0.88;;;;;;;;;;4994428;28;19917;-86
2023/03/26 18:42:22;;;;;;;1.67;0.73;;;;;;;;;;5000552;28;20049;-87
2023/03/26 18:44:49;;;;;;;0.57;0.57;;;;;;;;;;5013276;28;20026;-87
2023/03/26 18:47:15;;;;;;;0.50;0.50;;;;;;;;;;5012909;28;20038;-85
2023/03/26 18:49:44;;;;;;;2.58;0.70;;;;;;;;;;5011485;28;20497;-87
2023/03/26 18:52:15;;;;;;;0.95;0.70;;;;;;;;;;4990803;28;20038;-86
2023/03/26 18:54:41;;;;;;;2.05;0.70;;;;;;;;;;5001929;28;20035;-87
2023/03/26 18:57:10;;;;;;;0.70;0.70;;;;;;;;;;5010375;28;20042;-85
2023/03/26 18:59:36;;;;;;;1.13;0.70;;;;;;;;;;5011980;28;20038;-87
2023/03/26 19:02:03;;;;;;;0.55;0.50;;;;;;;;;;5011924;28;20030;-86
2023/03/26 19:04:32;;;;;;;1.02;0.73;;;;;;;;;;5007884;28;20030;-86
2023/03/26 19:06:59;;;;;;;0.60;0.50;;;;;;;;;;4999778;28;20033;-87
2023/03/26 19:09:25;;;;;;;1.55;0.70;;;;;;;;;;5028194;28;20033;-87
2023/03/26 19:12:14;;;;;;;0.57;0.57;;;;;;;;;;5008906;28;20030;-84
2023/03/26 19:14:50;;;;;;;0.70;0.65;;;;;;;;;;5002431;28;20125;-87
2023/03/26 19:17:15;;;;;;;0.60;0.60;;;;;;;;;;5010563;28;20556;-87
2023/03/26 19:19:42;;;;;;;1.60;0.60;;;;;;;;;;5009859;28;20114;-87
2023/03/26 19:22:10;;;;;;;0.57;0.55;;;;;;;;;;5011422;28;20101;-86
2023/03/26 19:24:39;;;;;;;1.13;1.02;;;;;;;;;;5010305;28;20034;-88
2023/03/26 19:27:04;;;;;;;1.05;0.70;;;;;;;;;;5011776;28;20037;-88
2023/03/26 19:29:31;;;;;;;1.58;0.63;;;;;;;;;;5025810;28;20059;-87
2023/03/26 19:32:00;;;;;;;0.73;0.63;;;;;;;;;;5010580;28;20064;-88
2023/03/26 19:34:33;;;;;;;0.73;0.50;;;;;;;;;;5011464;28;20037;-87
2023/03/26 19:37:00;;;;;;;0.57;0.57;;;;;;;;;;4997540;28;20030;-87
2023/03/26 19:39:46;;;;;;;1.15;0.88;;;;;;;;;;5010486;28;20053;-86
2023/03/26 19:42:20;;;;;;;0.98;0.90;;;;;;;;;;5014940;28;20049;-87
2023/03/26 19:44:46;;;;;;;0.70;0.70;;;;;;;;;;5008097;28;20113;-88
2023/03/26 19:47:12;;;;;;;0.80;0.80;;;;;;;;;;5026497;28;20041;-88
2023/03/26 19:49:56;;;;;;;1.27;0.90;;;;;;;;;;5011290;28;20088;-86
2023/03/26 19:52:26;;;;;;;0.85;0.82;;;;;;;;;;5010303;28;20042;-87
2023/03/26 19:54:53;;;;;;;1.35;1.23;;;;;;;;;;5011433;28;20034;-85
2023/03/26 19:57:20;;;;;;;1.85;1.00;;;;;;;;;;5010977;28;20042;-89
2023/03/26 19:59:46;;;;;;;1.10;1.00;;;;;;;;;;4993643;28;20068;-86
2023/03/26 20:02:11;;;;;;;1.48;1.08;;;;;;;;;;5026190;28;20038;-88
2023/03/26 20:04:37;;;;;;;1.00;0.90;;;;;;;;;;5007879;28;20113;-87
2023/03/26 20:07:13;;;;;;;1.77;1.30;;;;;;;;;;5019594;28;20026;-87
2023/03/26 20:09:43;;;;;;;0.90;0.90;;;;;;;;;;5002438;28;20120;-88
2023/03/26 20:12:08;;;;;;;2.00;1.20;;;;;;;;;;5005521;28;20034;-88
2023/03/26 20:14:35;;;;;;;1.30;1.20;;;;;;;;;;5009336;28;20033;-86
2023/03/26 20:17:00;;;;;;;2.95;1.30;;;;;;;;;;5009714;28;20042;-86
2023/03/26 20:19:26;;;;;;;1.73;1.40;;;;;;;;;;5010674;28;20088;-87
2023/03/26 20:21:51;;;;;;;1.85;1.13;;;;;;;;;;4993760;28;20084;-88
2023/03/26 20:24:17;;;;;;;2.08;1.23;;;;;;;;;;5015754;28;20099;-87
2023/03/26 20:26:44;;;;;;;2.88;1.27;;;;;;;;;;5010282;28;20046;-87
2023/03/26 20:29:11;;;;;;;4.28;1.35;;;;;;;;;;5011188;28;20030;-88
2023/03/26 20:31:37;;;;;;;2.03;1.20;;;;;;;;;;5010412;28;20042;-88
2023/03/26 20:34:02;;;;;;;1.67;1.35;;;;;;;;;;5011282;28;20044;-90
2023/03/26 20:36:28;;;;;;;1.85;1.40;;;;;;;;;;5026754;28;20073;-87
2023/03/26 20:38:53;;;;;;;1.55;1.45;;;;;;;;;;5009988;28;20386;-87
2023/03/26 20:41:21;;;;;;;1.65;1.48;;;;;;;;;;5026397;28;20041;-88
2023/03/26 20:43:47;;;;;;;3.40;1.83;;;;;;;;;;5008362;28;20452;-87
2023/03/26 20:46:20;;;;;;;1.83;1.70;;;;;;;;;;5013132;28;20038;-88
2023/03/26 20:48:45;;;;;;;2.78;1.60;;;;;;;;;;5016284;28;20030;-87
2023/03/26 20:51:12;;;;;;;2.13;1.70;;;;;;;;;;5018359;28;20041;-87
2023/03/26 20:53:41;;;;;;;2.92;1.70;;;;;;;;;;5012658;28;20112;-87
2023/03/26 20:56:18;;;;;;;2.58;1.42;;;;;;;;;;5027114;28;20037;-88
2023/03/26 20:58:44;;;;;;;2.70;1.65;;;;;;;;;;5006235;28;20498;-88
2023/03/26 21:01:10;;;;;;;2.55;1.48;;;;;;;;;;5012999;28;20088;-87
2023/03/26 21:03:37;;;;;;;3.00;1.60;;;;;;;;;;5011966;28;20034;-90
2023/03/26 21:06:03;;;;;;;2.05;1.85;;;;;;;;;;5015828;28;20042;-89
2023/03/26 21:08:35;;;;;;;2.33;1.40;;;;;;;;;;4995497;28;20037;-88
2023/03/26 21:11:01;;;;;;;1.92;1.40;;;;;;;;;;5003227;28;20037;-88
2023/03/26 21:13:39;;;;;;;1.60;1.50;;;;;;;;;;5015683;28;20091;-88
2023/03/26 21:16:05;;;;;;;1.60;1.50;;;;;;;;;;4999367;28;20083;-88
2023/03/26 21:18:30;;;;;;;1.98;1.50;;;;;;;;;;5014849;28;20033;-88
2023/03/26 21:21:03;;;;;;;3.58;1.60;;;;;;;;;;5014534;28;20287;-87
2023/03/26 21:23:34;;;;;;;2.05;1.80;;;;;;;;;;4998080;28;20041;-87
2023/03/26 21:26:05;;;;;;;2.30;1.67;;;;;;;;;;5014786;28;20807;-87
2023/03/26 21:28:40;;;;;;;2.65;1.60;;;;;;;;;;4998247;28;20033;-88
2023/03/26 21:31:06;;;;;;;1.50;1.40;;;;;;;;;;5031902;28;20030;-88
2023/03/26 21:33:32;;;;;;;2.20;2.00;;;;;;;;;;5015409;28;20034;-88
2023/03/26 21:36:00;;;;;;;2.17;1.80;;;;;;;;;;5029865;28;20021;-89
2023/03/26 21:38:26;;;;;;;2.30;1.90;;;;;;;;;;5030969;28;20048;-89
2023/03/26 21:40:52;;;;;;;1.80;1.67;;;;;;;;;;5013055;28;20945;-87
2023/03/26 21:43:19;;;;;;;3.15;1.75;;;;;;;;;;5001923;28;20639;-87
2023/03/26 21:45:47;;;;;;;1.65;1.55;;;;;;;;;;5013647;28;20402;-87
2023/03/26 21:48:13;;;;;;;2.17;1.98;;;;;;;;;;5012852;28;20083;-87
2023/03/26 21:50:38;;;;;;;2.33;1.80;;;;;;;;;;5015008;28;20038;-87
2023/03/26 21:53:04;;;;;;;3.13;1.80;;;;;;;;;;5014960;28;20508;-87
2023/03/26 21:55:33;;;;;;;2.10;1.90;;;;;;;;;;5013545;28;20038;-88
2023/03/26 21:58:06;;;;;;;2.20;1.70;;;;;;;;;;5004818;28;20452;-87
2023/03/26 22:00:54;;;;;;;2.45;1.88;;;;;;;;;;5013255;28;20436;-89
2023/03/26 22:03:33;;;;;;;3.03;1.88;;;;;;;;;;5003633;28;20580;-87
2023/03/26 22:06:12;;;;;;;2.03;1.83;;;;;;;;;;5012692;28;20473;-88
2023/03/26 22:08:39;;;;;;;2.25;1.70;;;;;;;;;;5013732;28;20562;-88
2023/03/26 22:11:09;;;;;;;4.55;1.60;;;;;;;;;;5008675;28;20126;-88
2023/03/26 22:13:34;;;;;;;1.58;1.48;;;;;;;;;;5013093;28;20038;-88
2023/03/26 22:16:00;;;;;;;2.40;1.60;;;;;;;;;;4997309;28;20034;-87
2023/03/26 22:18:29;;;;;;;2.85;1.60;;;;;;;;;;5013287;28;20040;-88
2023/03/26 22:20:54;;;;;;;2.38;1.70;;;;;;;;;;5013246;28;20103;-87
2023/03/26 22:23:20;;;;;;;2.55;1.70;;;;;;;;;;5013341;28;20029;-88
2023/03/26 22:25:45;;;;;;;2.22;1.50;;;;;;;;;;5014997;28;20037;-90
2023/03/26 22:28:11;;;;;;;2.15;1.63;;;;;;;;;;5014601;28;20441;-87
2023/03/26 22:30:36;;;;;;;2.05;1.77;;;;;;;;;;4996094;28;20038;-91
2023/03/26 22:33:02;;;;;;;3.65;1.70;;;;;;;;;;5014174;28;20037;-88
2023/03/26 22:35:27;;;;;;;2.90;1.90;;;;;;;;;;5014747;28;20025;-90
2023/03/26 22:37:53;;;;;;;1.60;1.45;;;;;;;;;;5013092;28;20053;-90
2023/03/26 22:40:19;;;;;;;3.00;1.90;;;;;;;;;;5030278;28;20034;-88
2023/03/26 22:42:45;;;;;;;2.55;1.58;;;;;;;;;;5013038;28;20419;-89
2023/03/26 22:45:10;;;;;;;2.88;1.80;;;;;;;;;;5013146;28;20485;-88
2023/03/26 22:47:36;;;;;;;3.75;1.55;;;;;;;;;;5013389;28;20494;-88
2023/03/26 22:50:03;;;;;;;2.00;1.80;;;;;;;;;;5023782;28;20401;-87
2023/03/26 22:52:28;;;;;;;2.50;1.60;;;;;;;;;;4994974;28;20065;-90
2023/03/26 22:54:54;;;;;;;2.60;1.63;;;;;;;;;;5028537;28;20033;-88
2023/03/26 22:57:20;;;;;;;2.33;1.85;;;;;;;;;;5013294;28;20131;-88
2023/03/26 22:59:46;;;;;;;4.40;1.95;;;;;;;;;;4997948;28;20034;-89
2023/03/26 23:02:11;;;;;;;3.97;1.98;;;;;;;;;;4994865;28;20042;-90
2023/03/26 23:04:37;;;;;;;2.58;1.85;;;;;;;;;;5000884;28;20037;-86
2023/03/26 23:07:17;;;;;;;2.05;1.85;;;;;;;;;;5011286;28;20025;-90
2023/03/26 23:09:44;;;;;;;3.20;2.25;;;;;;;;;;5013591;28;20041;-90